Pensacola NAS, Florida
Current Conditions -  °F | °C
As of 10:56 AM on Saturday 25 Oct 2014 (Local Time) from KNPA Reporting Station
Clear Clear  
Wind Chill: 73°   Ceiling: Unl
Heat Index: 73°   Visibility: 10mi
Dew Point: 50°   Wind: 12mph
Humidity: 44%   Direction: 360°N
Pressure: 30.11"   Gusts: NA
Location:  30.35°N, 87.32°W
Report Text: KNPA 251556Z 36010KT 10SM CLR 23/10 A3011 RMK AO2 SLP198 T02280100
Loading
Personal Weather Stations






























Interactive Weather Map
Tropical Storm Tracking
New forecast layout! Learn more

10-Day Weather Forecast

Advertisements
Track Severe Weather on mobile